<?xml version="1.0" encoding="UTF-8" standalone="no" ?>
<gpx xmlns="http://www.topografix.com/GPX/1/1" xmlns:xsi="http://www.w3.org/2001/XMLSchema-instance" xsi:schemaLocation="http://www.topografix.com/GPX/1/1 http://www.topografix.com/GPX/1/1/gpx.xsd" version="1.1" creator="VisuGPX - https://www.visugpx.com">
  <metadata>
    <name>Alpes Grées, entre France et Italie</name>
    <desc><![CDATA[Les Alpes Grées sont des montagnes injustement méconnues du grand public, formant pourtant la frontière naturelle entre France et Italie sur plus de 50 kilomètres. Isolées et sauvages, elles sont pourtant fréquentées depuis très longtemps, comme en témoigne la voie romaine franchissant le Col du Petit-Saint-Bernard. N'oublions pas  non plus qu'il y a 150 ans, Val d'Aoste et Savoie étaient alors réunies sous la même bannière du royaume de Piémont-Sardaigne. C'est cette ambiance bien particulière que vous ressentirez à coup sûr en jouant à saute mouton entre France et Italie, en suivant des chemins immémoriaux qui permettaient un commerce important, légal et parfois moins?.
]]></desc>
  </metadata>
  <trk>
    <name><![CDATA[Jour 1]]></name>
    <desc><![CDATA[Village du Chenal - Refuge de l'Archeboc ]]></desc>
    <extensions>
      <line xmlns="http://www.topografix.com/GPX/gpx_style/0/2">
        <color>ff0011</color>
        <width>7</width>
      </line>
    </extensions>
    <trkseg>
      <trkpt lat="45.54644" lon="6.91342">
        <ele>1706</ele>
        <time>2021-05-10T15:17:38+02:00</time>
      </trkpt>
      <trkpt lat="45.54573" lon="6.91482">
        <ele>1725</ele>
        <time>2021-05-10T15:17:43+02:00</time>
      </trkpt>
      <trkpt lat="45.54502" lon="6.91583">
        <ele>1729</ele>
        <time>2021-05-10T15:17:48+02:00</time>
      </trkpt>
      <trkpt lat="45.54561" lon="6.91652">
        <ele>1754</ele>
        <time>2021-05-10T15:17:53+02:00</time>
      </trkpt>
      <trkpt lat="45.54631" lon="6.91565">
        <ele>1762</ele>
        <time>2021-05-10T15:17:58+02:00</time>
      </trkpt>
      <trkpt lat="45.54715" lon="6.91492">
        <ele>1769</ele>
        <time>2021-05-10T15:18:03+02:00</time>
      </trkpt>
      <trkpt lat="45.54846" lon="6.91408">
        <ele>1797</ele>
        <time>2021-05-10T15:18:08+02:00</time>
      </trkpt>
      <trkpt lat="45.55008" lon="6.91377">
        <ele>1816</ele>
        <time>2021-05-10T15:18:13+02:00</time>
      </trkpt>
      <trkpt lat="45.55154" lon="6.91349">
        <ele>1813</ele>
        <time>2021-05-10T15:18:18+02:00</time>
      </trkpt>
      <trkpt lat="45.5523" lon="6.91342">
        <ele>1818</ele>
        <time>2021-05-10T15:18:23+02:00</time>
      </trkpt>
      <trkpt lat="45.55276" lon="6.91513">
        <ele>1822</ele>
        <time>2021-05-10T15:18:28+02:00</time>
      </trkpt>
      <trkpt lat="45.5532" lon="6.91862">
        <ele>1871</ele>
        <time>2021-05-10T15:18:33+02:00</time>
      </trkpt>
      <trkpt lat="45.55396" lon="6.92148">
        <ele>1875</ele>
        <time>2021-05-10T15:18:38+02:00</time>
      </trkpt>
      <trkpt lat="45.5546" lon="6.92218">
        <ele>1876</ele>
        <time>2021-05-10T15:18:43+02:00</time>
      </trkpt>
      <trkpt lat="45.55435" lon="6.92322">
        <ele>1890</ele>
        <time>2021-05-10T15:18:48+02:00</time>
      </trkpt>
      <trkpt lat="45.55315" lon="6.92357">
        <ele>1908</ele>
        <time>2021-05-10T15:18:53+02:00</time>
      </trkpt>
      <trkpt lat="45.55384" lon="6.92416">
        <ele>1918</ele>
        <time>2021-05-10T15:18:58+02:00</time>
      </trkpt>
      <trkpt lat="45.55411" lon="6.925">
        <ele>1943</ele>
        <time>2021-05-10T15:19:03+02:00</time>
      </trkpt>
      <trkpt lat="45.55452" lon="6.92518">
        <ele>1938</ele>
        <time>2021-05-10T15:19:08+02:00</time>
      </trkpt>
      <trkpt lat="45.5535" lon="6.92573">
        <ele>1975</ele>
        <time>2021-05-10T15:19:13+02:00</time>
      </trkpt>
      <trkpt lat="45.55413" lon="6.92744">
        <ele>2010</ele>
        <time>2021-05-10T15:19:18+02:00</time>
      </trkpt>
      <trkpt lat="45.55411" lon="6.92967">
        <ele>2049</ele>
        <time>2021-05-10T15:19:23+02:00</time>
      </trkpt>
      <trkpt lat="45.55477" lon="6.92978">
        <ele>2071</ele>
        <time>2021-05-10T15:19:28+02:00</time>
      </trkpt>
      <trkpt lat="45.55486" lon="6.92926">
        <ele>2057</ele>
        <time>2021-05-10T15:19:33+02:00</time>
      </trkpt>
      <trkpt lat="45.55528" lon="6.92978">
        <ele>2091</ele>
        <time>2021-05-10T15:19:38+02:00</time>
      </trkpt>
      <trkpt lat="45.5554" lon="6.93198">
        <ele>2143</ele>
        <time>2021-05-10T15:19:43+02:00</time>
      </trkpt>
      <trkpt lat="45.55579" lon="6.93414">
        <ele>2162</ele>
        <time>2021-05-10T15:19:48+02:00</time>
      </trkpt>
      <trkpt lat="45.55638" lon="6.93533">
        <ele>2180</ele>
        <time>2021-05-10T15:19:53+02:00</time>
      </trkpt>
      <trkpt lat="45.55638" lon="6.93599">
        <ele>2189</ele>
        <time>2021-05-10T15:19:58+02:00</time>
      </trkpt>
      <trkpt lat="45.55606" lon="6.9363">
        <ele>2197</ele>
        <time>2021-05-10T15:20:03+02:00</time>
      </trkpt>
      <trkpt lat="45.55696" lon="6.93693">
        <ele>2219</ele>
        <time>2021-05-10T15:20:08+02:00</time>
      </trkpt>
      <trkpt lat="45.55753" lon="6.93794">
        <ele>2228</ele>
        <time>2021-05-10T15:20:13+02:00</time>
      </trkpt>
      <trkpt lat="45.55709" lon="6.93965">
        <ele>2232</ele>
        <time>2021-05-10T15:20:18+02:00</time>
      </trkpt>
      <trkpt lat="45.55826" lon="6.94234">
        <ele>2219</ele>
        <time>2021-05-10T15:20:23+02:00</time>
      </trkpt>
      <trkpt lat="45.55963" lon="6.94474">
        <ele>2213</ele>
        <time>2021-05-10T15:20:28+02:00</time>
      </trkpt>
      <trkpt lat="45.56007" lon="6.94687">
        <ele>2215</ele>
        <time>2021-05-10T15:20:33+02:00</time>
      </trkpt>
      <trkpt lat="45.56046" lon="6.94844">
        <ele>2218</ele>
        <time>2021-05-10T15:20:38+02:00</time>
      </trkpt>
      <trkpt lat="45.5619" lon="6.95151">
        <ele>2222</ele>
        <time>2021-05-10T15:20:43+02:00</time>
      </trkpt>
      <trkpt lat="45.56331" lon="6.9536">
        <ele>2244</ele>
        <time>2021-05-10T15:20:48+02:00</time>
      </trkpt>
      <trkpt lat="45.5639" lon="6.95653">
        <ele>2301</ele>
        <time>2021-05-10T15:20:53+02:00</time>
      </trkpt>
      <trkpt lat="45.56432" lon="6.9573">
        <ele>2312</ele>
        <time>2021-05-10T15:20:58+02:00</time>
      </trkpt>
      <trkpt lat="45.56407" lon="6.95845">
        <ele>2316</ele>
        <time>2021-05-10T15:21:03+02:00</time>
      </trkpt>
      <trkpt lat="45.56417" lon="6.96054">
        <ele>2353</ele>
        <time>2021-05-10T15:21:08+02:00</time>
      </trkpt>
      <trkpt lat="45.56458" lon="6.9632">
        <ele>2387</ele>
        <time>2021-05-10T15:21:13+02:00</time>
      </trkpt>
      <trkpt lat="45.56463" lon="6.96536">
        <ele>2408</ele>
        <time>2021-05-10T15:21:18+02:00</time>
      </trkpt>
      <trkpt lat="45.56478" lon="6.96888">
        <ele>2424</ele>
        <time>2021-05-10T15:21:23+02:00</time>
      </trkpt>
      <trkpt lat="45.5649" lon="6.97073">
        <ele>2442</ele>
        <time>2021-05-10T15:21:28+02:00</time>
      </trkpt>
      <trkpt lat="45.56563" lon="6.97286">
        <ele>2475</ele>
        <time>2021-05-10T15:21:33+02:00</time>
      </trkpt>
      <trkpt lat="45.56642" lon="6.97425">
        <ele>2483</ele>
        <time>2021-05-10T15:21:38+02:00</time>
      </trkpt>
      <trkpt lat="45.5671" lon="6.97526">
        <ele>2504</ele>
        <time>2021-05-10T15:21:43+02:00</time>
      </trkpt>
      <trkpt lat="45.56791" lon="6.97673">
        <ele>2540</ele>
        <time>2021-05-10T15:21:48+02:00</time>
      </trkpt>
      <trkpt lat="45.56866" lon="6.97788">
        <ele>2549</ele>
        <time>2021-05-10T15:21:53+02:00</time>
      </trkpt>
      <trkpt lat="45.56883" lon="6.98133">
        <ele>2607</ele>
        <time>2021-05-10T15:21:58+02:00</time>
      </trkpt>
      <trkpt lat="45.56935" lon="6.98283">
        <ele>2620</ele>
        <time>2021-05-10T15:22:03+02:00</time>
      </trkpt>
      <trkpt lat="45.57062" lon="6.98343">
        <ele>2640</ele>
        <time>2021-05-10T15:22:08+02:00</time>
      </trkpt>
      <trkpt lat="45.57169" lon="6.98245">
        <ele>2677</ele>
        <time>2021-05-10T15:22:13+02:00</time>
      </trkpt>
      <trkpt lat="45.57252" lon="6.98165">
        <ele>2690</ele>
        <time>2021-05-10T15:22:18+02:00</time>
      </trkpt>
      <trkpt lat="45.57345" lon="6.98067">
        <ele>2722</ele>
        <time>2021-05-10T15:22:23+02:00</time>
      </trkpt>
      <trkpt lat="45.57428" lon="6.98004">
        <ele>2754</ele>
        <time>2021-05-10T15:22:28+02:00</time>
      </trkpt>
      <trkpt lat="45.5754" lon="6.97914">
        <ele>2813</ele>
        <time>2021-05-10T15:22:33+02:00</time>
      </trkpt>
      <trkpt lat="45.57643" lon="6.97879">
        <ele>2862</ele>
        <time>2021-05-10T15:22:38+02:00</time>
      </trkpt>
      <trkpt lat="45.57753" lon="6.97771">
        <ele>2927</ele>
        <time>2021-05-10T15:22:43+02:00</time>
      </trkpt>
      <trkpt lat="45.5784" lon="6.9761">
        <ele>2908</ele>
        <time>2021-05-10T15:22:48+02:00</time>
      </trkpt>
      <trkpt lat="45.57997" lon="6.97492">
        <ele>2940</ele>
        <time>2021-05-10T15:22:53+02:00</time>
      </trkpt>
      <trkpt lat="45.5816" lon="6.9739">
        <ele>2889</ele>
        <time>2021-05-10T15:22:58+02:00</time>
      </trkpt>
      <trkpt lat="45.58326" lon="6.97219">
        <ele>2878</ele>
        <time>2021-05-10T15:23:03+02:00</time>
      </trkpt>
      <trkpt lat="45.58456" lon="6.96906">
        <ele>2887</ele>
        <time>2021-05-10T15:23:08+02:00</time>
      </trkpt>
      <trkpt lat="45.58514" lon="6.9663">
        <ele>2847</ele>
        <time>2021-05-10T15:23:13+02:00</time>
      </trkpt>
      <trkpt lat="45.5859" lon="6.96354">
        <ele>2711</ele>
        <time>2021-05-10T15:23:18+02:00</time>
      </trkpt>
      <trkpt lat="45.58688" lon="6.96142">
        <ele>2622</ele>
        <time>2021-05-10T15:23:23+02:00</time>
      </trkpt>
      <trkpt lat="45.58788" lon="6.95873">
        <ele>2489</ele>
        <time>2021-05-10T15:23:28+02:00</time>
      </trkpt>
      <trkpt lat="45.58912" lon="6.95615">
        <ele>2400</ele>
        <time>2021-05-10T15:23:33+02:00</time>
      </trkpt>
      <trkpt lat="45.59117" lon="6.95496">
        <ele>2336</ele>
        <time>2021-05-10T15:23:38+02:00</time>
      </trkpt>
      <trkpt lat="45.59439" lon="6.95465">
        <ele>2208</ele>
        <time>2021-05-10T15:23:43+02:00</time>
      </trkpt>
      <trkpt lat="45.59761" lon="6.955">
        <ele>2086</ele>
        <time>2021-05-10T15:23:48+02:00</time>
      </trkpt>
      <trkpt lat="45.59859" lon="6.9543">
        <ele>2041</ele>
        <time>2021-05-10T15:23:53+02:00</time>
      </trkpt>
      <trkpt lat="45.60008" lon="6.95413">
        <ele>1998</ele>
        <time>2021-05-10T15:23:58+02:00</time>
      </trkpt>
      <trkpt lat="45.6004" lon="6.9566">
        <ele>2012</ele>
        <time>2021-05-10T15:24:03+02:00</time>
      </trkpt>
      <trkpt lat="45.60135" lon="6.95887">
        <ele>2032</ele>
        <time>2021-05-10T15:24:08+02:00</time>
      </trkpt>
      <trkpt lat="45.60264" lon="6.9589">
        <ele>2023</ele>
        <time>2021-05-10T15:24:13+02:00</time>
      </trkpt>
    </trkseg>
  </trk>
  <trk>
    <name><![CDATA[Jour 2]]></name>
    <desc><![CDATA[Refuge de L'Archeboc - Refuge du Ruitor]]></desc>
    <extensions>
      <line xmlns="http://www.topografix.com/GPX/gpx_style/0/2">
        <color>ff0019</color>
        <width>6</width>
      </line>
    </extensions>
    <trkseg>
      <trkpt lat="45.60257" lon="6.95863">
        <ele>2023</ele>
        <time>2021-05-10T15:24:07+02:00</time>
      </trkpt>
      <trkpt lat="45.60189" lon="6.95932">
        <ele>2045</ele>
        <time>2021-05-10T15:24:12+02:00</time>
      </trkpt>
      <trkpt lat="45.60142" lon="6.96058">
        <ele>2093</ele>
        <time>2021-05-10T15:24:17+02:00</time>
      </trkpt>
      <trkpt lat="45.60186" lon="6.96114">
        <ele>2118</ele>
        <time>2021-05-10T15:24:22+02:00</time>
      </trkpt>
      <trkpt lat="45.6011" lon="6.9633">
        <ele>2172</ele>
        <time>2021-05-10T15:24:27+02:00</time>
      </trkpt>
      <trkpt lat="45.60081" lon="6.96592">
        <ele>2214</ele>
        <time>2021-05-10T15:24:32+02:00</time>
      </trkpt>
      <trkpt lat="45.60015" lon="6.96776">
        <ele>2238</ele>
        <time>2021-05-10T15:24:37+02:00</time>
      </trkpt>
      <trkpt lat="45.59954" lon="6.96947">
        <ele>2269</ele>
        <time>2021-05-10T15:24:42+02:00</time>
      </trkpt>
      <trkpt lat="45.59925" lon="6.97031">
        <ele>2292</ele>
        <time>2021-05-10T15:24:47+02:00</time>
      </trkpt>
      <trkpt lat="45.59945" lon="6.9708">
        <ele>2315</ele>
        <time>2021-05-10T15:24:52+02:00</time>
      </trkpt>
      <trkpt lat="45.60025" lon="6.97101">
        <ele>2349</ele>
        <time>2021-05-10T15:24:57+02:00</time>
      </trkpt>
      <trkpt lat="45.60062" lon="6.97153">
        <ele>2369</ele>
        <time>2021-05-10T15:25:02+02:00</time>
      </trkpt>
      <trkpt lat="45.60018" lon="6.97373">
        <ele>2408</ele>
        <time>2021-05-10T15:25:07+02:00</time>
      </trkpt>
      <trkpt lat="45.6001" lon="6.97505">
        <ele>2439</ele>
        <time>2021-05-10T15:25:12+02:00</time>
      </trkpt>
      <trkpt lat="45.60076" lon="6.97478">
        <ele>2453</ele>
        <time>2021-05-10T15:25:17+02:00</time>
      </trkpt>
      <trkpt lat="45.60047" lon="6.97544">
        <ele>2461</ele>
        <time>2021-05-10T15:25:22+02:00</time>
      </trkpt>
      <trkpt lat="45.60084" lon="6.97554">
        <ele>2475</ele>
        <time>2021-05-10T15:25:27+02:00</time>
      </trkpt>
      <trkpt lat="45.6002" lon="6.9768">
        <ele>2499</ele>
        <time>2021-05-10T15:25:32+02:00</time>
      </trkpt>
      <trkpt lat="45.60045" lon="6.97781">
        <ele>2541</ele>
        <time>2021-05-10T15:25:37+02:00</time>
      </trkpt>
      <trkpt lat="45.60103" lon="6.97711">
        <ele>2544</ele>
        <time>2021-05-10T15:25:42+02:00</time>
      </trkpt>
      <trkpt lat="45.60098" lon="6.97805">
        <ele>2563</ele>
        <time>2021-05-10T15:25:47+02:00</time>
      </trkpt>
      <trkpt lat="45.60137" lon="6.97753">
        <ele>2563</ele>
        <time>2021-05-10T15:25:52+02:00</time>
      </trkpt>
      <trkpt lat="45.60128" lon="6.9798">
        <ele>2606</ele>
        <time>2021-05-10T15:25:57+02:00</time>
      </trkpt>
      <trkpt lat="45.60154" lon="6.98175">
        <ele>2634</ele>
        <time>2021-05-10T15:26:02+02:00</time>
      </trkpt>
      <trkpt lat="45.60176" lon="6.98367">
        <ele>2612</ele>
        <time>2021-05-10T15:26:07+02:00</time>
      </trkpt>
      <trkpt lat="45.60137" lon="6.98545">
        <ele>2572</ele>
        <time>2021-05-10T15:26:12+02:00</time>
      </trkpt>
      <trkpt lat="45.60167" lon="6.9881">
        <ele>2488</ele>
        <time>2021-05-10T15:26:17+02:00</time>
      </trkpt>
      <trkpt lat="45.60223" lon="6.99026">
        <ele>2469</ele>
        <time>2021-05-10T15:26:22+02:00</time>
      </trkpt>
      <trkpt lat="45.60276" lon="6.99106">
        <ele>2460</ele>
        <time>2021-05-10T15:26:27+02:00</time>
      </trkpt>
      <trkpt lat="45.60391" lon="6.9919">
        <ele>2434</ele>
        <time>2021-05-10T15:26:32+02:00</time>
      </trkpt>
      <trkpt lat="45.60511" lon="6.99256">
        <ele>2412</ele>
        <time>2021-05-10T15:26:37+02:00</time>
      </trkpt>
      <trkpt lat="45.60664" lon="6.99309">
        <ele>2418</ele>
        <time>2021-05-10T15:26:42+02:00</time>
      </trkpt>
      <trkpt lat="45.60804" lon="6.99448">
        <ele>2396</ele>
        <time>2021-05-10T15:26:47+02:00</time>
      </trkpt>
      <trkpt lat="45.60935" lon="6.9957">
        <ele>2380</ele>
        <time>2021-05-10T15:26:52+02:00</time>
      </trkpt>
      <trkpt lat="45.61096" lon="6.99706">
        <ele>2379</ele>
        <time>2021-05-10T15:26:57+02:00</time>
      </trkpt>
      <trkpt lat="45.6117" lon="6.99818">
        <ele>2338</ele>
        <time>2021-05-10T15:27:02+02:00</time>
      </trkpt>
      <trkpt lat="45.6127" lon="6.99842">
        <ele>2373</ele>
        <time>2021-05-10T15:27:07+02:00</time>
      </trkpt>
      <trkpt lat="45.61335" lon="6.99874">
        <ele>2419</ele>
        <time>2021-05-10T15:27:12+02:00</time>
      </trkpt>
      <trkpt lat="45.61418" lon="6.9994">
        <ele>2432</ele>
        <time>2021-05-10T15:27:17+02:00</time>
      </trkpt>
      <trkpt lat="45.61518" lon="6.99982">
        <ele>2469</ele>
        <time>2021-05-10T15:27:22+02:00</time>
      </trkpt>
      <trkpt lat="45.61557" lon="6.9987">
        <ele>2502</ele>
        <time>2021-05-10T15:27:27+02:00</time>
      </trkpt>
      <trkpt lat="45.61599" lon="6.99762">
        <ele>2505</ele>
        <time>2021-05-10T15:27:32+02:00</time>
      </trkpt>
      <trkpt lat="45.61689" lon="6.99647">
        <ele>2506</ele>
        <time>2021-05-10T15:27:37+02:00</time>
      </trkpt>
      <trkpt lat="45.61758" lon="6.99445">
        <ele>2605</ele>
        <time>2021-05-10T15:27:42+02:00</time>
      </trkpt>
      <trkpt lat="45.61843" lon="6.99229">
        <ele>2680</ele>
        <time>2021-05-10T15:27:47+02:00</time>
      </trkpt>
      <trkpt lat="45.61887" lon="6.99016">
        <ele>2747</ele>
        <time>2021-05-10T15:27:52+02:00</time>
      </trkpt>
      <trkpt lat="45.61926" lon="6.98834">
        <ele>2795</ele>
        <time>2021-05-10T15:27:57+02:00</time>
      </trkpt>
      <trkpt lat="45.62001" lon="6.98744">
        <ele>2787</ele>
        <time>2021-05-10T15:28:02+02:00</time>
      </trkpt>
      <trkpt lat="45.62055" lon="6.98493">
        <ele>2845</ele>
        <time>2021-05-10T15:28:07+02:00</time>
      </trkpt>
      <trkpt lat="45.62087" lon="6.98238">
        <ele>2784</ele>
        <time>2021-05-10T15:28:12+02:00</time>
      </trkpt>
      <trkpt lat="45.62021" lon="6.98105">
        <ele>2769</ele>
        <time>2021-05-10T15:28:17+02:00</time>
      </trkpt>
      <trkpt lat="45.61962" lon="6.97931">
        <ele>2764</ele>
        <time>2021-05-10T15:28:22+02:00</time>
      </trkpt>
      <trkpt lat="45.6188" lon="6.97708">
        <ele>2757</ele>
        <time>2021-05-10T15:28:27+02:00</time>
      </trkpt>
      <trkpt lat="45.6184" lon="6.97519">
        <ele>2735</ele>
        <time>2021-05-10T15:28:32+02:00</time>
      </trkpt>
      <trkpt lat="45.61831" lon="6.97307">
        <ele>2664</ele>
        <time>2021-05-10T15:28:37+02:00</time>
      </trkpt>
      <trkpt lat="45.61836" lon="6.97035">
        <ele>2603</ele>
        <time>2021-05-10T15:28:42+02:00</time>
      </trkpt>
      <trkpt lat="45.61819" lon="6.96721">
        <ele>2559</ele>
        <time>2021-05-10T15:28:47+02:00</time>
      </trkpt>
      <trkpt lat="45.61789" lon="6.96536">
        <ele>2542</ele>
        <time>2021-05-10T15:28:52+02:00</time>
      </trkpt>
      <trkpt lat="45.6175" lon="6.96316">
        <ele>2539</ele>
        <time>2021-05-10T15:28:57+02:00</time>
      </trkpt>
      <trkpt lat="45.61738" lon="6.9619">
        <ele>2518</ele>
        <time>2021-05-10T15:29:02+02:00</time>
      </trkpt>
      <trkpt lat="45.61797" lon="6.96086">
        <ele>2460</ele>
        <time>2021-05-10T15:29:07+02:00</time>
      </trkpt>
      <trkpt lat="45.61838" lon="6.95992">
        <ele>2435</ele>
        <time>2021-05-10T15:29:12+02:00</time>
      </trkpt>
      <trkpt lat="45.61916" lon="6.95978">
        <ele>2391</ele>
        <time>2021-05-10T15:29:17+02:00</time>
      </trkpt>
      <trkpt lat="45.62028" lon="6.95856">
        <ele>2358</ele>
        <time>2021-05-10T15:29:22+02:00</time>
      </trkpt>
      <trkpt lat="45.62058" lon="6.95639">
        <ele>2348</ele>
        <time>2021-05-10T15:29:27+02:00</time>
      </trkpt>
      <trkpt lat="45.62162" lon="6.95325">
        <ele>2306</ele>
        <time>2021-05-10T15:29:32+02:00</time>
      </trkpt>
      <trkpt lat="45.62226" lon="6.95116">
        <ele>2264</ele>
        <time>2021-05-10T15:29:37+02:00</time>
      </trkpt>
      <trkpt lat="45.62297" lon="6.94956">
        <ele>2232</ele>
        <time>2021-05-10T15:29:42+02:00</time>
      </trkpt>
      <trkpt lat="45.62448" lon="6.9497">
        <ele>2183</ele>
        <time>2021-05-10T15:29:47+02:00</time>
      </trkpt>
      <trkpt lat="45.62448" lon="6.94872">
        <ele>2166</ele>
        <time>2021-05-10T15:29:52+02:00</time>
      </trkpt>
      <trkpt lat="45.62524" lon="6.94889">
        <ele>2142</ele>
        <time>2021-05-10T15:29:57+02:00</time>
      </trkpt>
      <trkpt lat="45.62494" lon="6.94757">
        <ele>2116</ele>
        <time>2021-05-10T15:30:02+02:00</time>
      </trkpt>
      <trkpt lat="45.6255" lon="6.94652">
        <ele>2073</ele>
        <time>2021-05-10T15:30:07+02:00</time>
      </trkpt>
      <trkpt lat="45.6257" lon="6.94474">
        <ele>2037</ele>
        <time>2021-05-10T15:30:12+02:00</time>
      </trkpt>
      <trkpt lat="45.62641" lon="6.94429">
        <ele>2036</ele>
        <time>2021-05-10T15:30:17+02:00</time>
      </trkpt>
      <trkpt lat="45.62643" lon="6.94303">
        <ele>2034</ele>
        <time>2021-05-10T15:30:22+02:00</time>
      </trkpt>
      <trkpt lat="45.62582" lon="6.94122">
        <ele>2033</ele>
        <time>2021-05-10T15:30:27+02:00</time>
      </trkpt>
    </trkseg>
  </trk>
  <trk>
    <name><![CDATA[Jour 3]]></name>
    <desc><![CDATA[Refuge du Ruitor - Hospice du Petit Saint Bernard]]></desc>
    <extensions>
      <line xmlns="http://www.topografix.com/GPX/gpx_style/0/2">
        <color>FF0000</color>
        <width>6</width>
      </line>
    </extensions>
    <trkseg>
      <trkpt lat="45.62572" lon="6.94139">
        <ele>2031</ele>
        <time>2021-05-10T15:30:20+02:00</time>
      </trkpt>
      <trkpt lat="45.62591" lon="6.93961">
        <ele>2039</ele>
        <time>2021-05-10T15:30:25+02:00</time>
      </trkpt>
      <trkpt lat="45.62537" lon="6.93863">
        <ele>2033</ele>
        <time>2021-05-10T15:30:30+02:00</time>
      </trkpt>
      <trkpt lat="45.6254" lon="6.93748">
        <ele>2034</ele>
        <time>2021-05-10T15:30:35+02:00</time>
      </trkpt>
      <trkpt lat="45.62506" lon="6.9356">
        <ele>2024</ele>
        <time>2021-05-10T15:30:40+02:00</time>
      </trkpt>
      <trkpt lat="45.62472" lon="6.9342">
        <ele>2003</ele>
        <time>2021-05-10T15:30:45+02:00</time>
      </trkpt>
      <trkpt lat="45.62476" lon="6.93249">
        <ele>1989</ele>
        <time>2021-05-10T15:30:50+02:00</time>
      </trkpt>
      <trkpt lat="45.62547" lon="6.93169">
        <ele>1984</ele>
        <time>2021-05-10T15:30:55+02:00</time>
      </trkpt>
      <trkpt lat="45.62557" lon="6.92841">
        <ele>1949</ele>
        <time>2021-05-10T15:31:00+02:00</time>
      </trkpt>
      <trkpt lat="45.62574" lon="6.92628">
        <ele>1951</ele>
        <time>2021-05-10T15:31:05+02:00</time>
      </trkpt>
      <trkpt lat="45.62681" lon="6.92391">
        <ele>1970</ele>
        <time>2021-05-10T15:31:10+02:00</time>
      </trkpt>
      <trkpt lat="45.62703" lon="6.92234">
        <ele>1965</ele>
        <time>2021-05-10T15:31:15+02:00</time>
      </trkpt>
      <trkpt lat="45.62935" lon="6.92109">
        <ele>1994</ele>
        <time>2021-05-10T15:31:20+02:00</time>
      </trkpt>
      <trkpt lat="45.6312" lon="6.91966">
        <ele>1986</ele>
        <time>2021-05-10T15:31:25+02:00</time>
      </trkpt>
      <trkpt lat="45.63289" lon="6.91878">
        <ele>1998</ele>
        <time>2021-05-10T15:31:30+02:00</time>
      </trkpt>
      <trkpt lat="45.63411" lon="6.91802">
        <ele>2015</ele>
        <time>2021-05-10T15:31:35+02:00</time>
      </trkpt>
      <trkpt lat="45.63547" lon="6.91631">
        <ele>2065</ele>
        <time>2021-05-10T15:31:40+02:00</time>
      </trkpt>
      <trkpt lat="45.63586" lon="6.91477">
        <ele>2105</ele>
        <time>2021-05-10T15:31:45+02:00</time>
      </trkpt>
      <trkpt lat="45.6364" lon="6.91306">
        <ele>2153</ele>
        <time>2021-05-10T15:31:50+02:00</time>
      </trkpt>
      <trkpt lat="45.63659" lon="6.91177">
        <ele>2191</ele>
        <time>2021-05-10T15:31:55+02:00</time>
      </trkpt>
      <trkpt lat="45.63572" lon="6.90996">
        <ele>2235</ele>
        <time>2021-05-10T15:32:00+02:00</time>
      </trkpt>
      <trkpt lat="45.63694" lon="6.90968">
        <ele>2266</ele>
        <time>2021-05-10T15:32:05+02:00</time>
      </trkpt>
      <trkpt lat="45.63735" lon="6.90839">
        <ele>2322</ele>
        <time>2021-05-10T15:32:10+02:00</time>
      </trkpt>
      <trkpt lat="45.63833" lon="6.90832">
        <ele>2355</ele>
        <time>2021-05-10T15:32:15+02:00</time>
      </trkpt>
      <trkpt lat="45.6395" lon="6.90891">
        <ele>2371</ele>
        <time>2021-05-10T15:32:20+02:00</time>
      </trkpt>
      <trkpt lat="45.64106" lon="6.9093">
        <ele>2380</ele>
        <time>2021-05-10T15:32:25+02:00</time>
      </trkpt>
      <trkpt lat="45.64174" lon="6.90933">
        <ele>2388</ele>
        <time>2021-05-10T15:32:30+02:00</time>
      </trkpt>
      <trkpt lat="45.6423" lon="6.90877">
        <ele>2398</ele>
        <time>2021-05-10T15:32:35+02:00</time>
      </trkpt>
      <trkpt lat="45.64281" lon="6.9086">
        <ele>2423</ele>
        <time>2021-05-10T15:32:40+02:00</time>
      </trkpt>
      <trkpt lat="45.64323" lon="6.90755">
        <ele>2453</ele>
        <time>2021-05-10T15:32:45+02:00</time>
      </trkpt>
      <trkpt lat="45.64435" lon="6.90745">
        <ele>2487</ele>
        <time>2021-05-10T15:32:50+02:00</time>
      </trkpt>
      <trkpt lat="45.64459" lon="6.90668">
        <ele>2508</ele>
        <time>2021-05-10T15:32:55+02:00</time>
      </trkpt>
      <trkpt lat="45.64586" lon="6.9072">
        <ele>2521</ele>
        <time>2021-05-10T15:33:00+02:00</time>
      </trkpt>
      <trkpt lat="45.64664" lon="6.9072">
        <ele>2525</ele>
        <time>2021-05-10T15:33:05+02:00</time>
      </trkpt>
      <trkpt lat="45.64691" lon="6.90668">
        <ele>2529</ele>
        <time>2021-05-10T15:33:10+02:00</time>
      </trkpt>
      <trkpt lat="45.64676" lon="6.90591">
        <ele>2502</ele>
        <time>2021-05-10T15:33:15+02:00</time>
      </trkpt>
      <trkpt lat="45.64664" lon="6.90504">
        <ele>2464</ele>
        <time>2021-05-10T15:33:20+02:00</time>
      </trkpt>
      <trkpt lat="45.64684" lon="6.90452">
        <ele>2421</ele>
        <time>2021-05-10T15:33:25+02:00</time>
      </trkpt>
      <trkpt lat="45.64637" lon="6.9042">
        <ele>2442</ele>
        <time>2021-05-10T15:33:30+02:00</time>
      </trkpt>
      <trkpt lat="45.64613" lon="6.90354">
        <ele>2415</ele>
        <time>2021-05-10T15:33:35+02:00</time>
      </trkpt>
      <trkpt lat="45.64603" lon="6.90264">
        <ele>2355</ele>
        <time>2021-05-10T15:33:40+02:00</time>
      </trkpt>
      <trkpt lat="45.64652" lon="6.9025">
        <ele>2321</ele>
        <time>2021-05-10T15:33:45+02:00</time>
      </trkpt>
      <trkpt lat="45.64593" lon="6.90166">
        <ele>2308</ele>
        <time>2021-05-10T15:33:50+02:00</time>
      </trkpt>
      <trkpt lat="45.64603" lon="6.90114">
        <ele>2280</ele>
        <time>2021-05-10T15:33:55+02:00</time>
      </trkpt>
      <trkpt lat="45.64601" lon="6.90061">
        <ele>2257</ele>
        <time>2021-05-10T15:34:00+02:00</time>
      </trkpt>
      <trkpt lat="45.64652" lon="6.90002">
        <ele>2224</ele>
        <time>2021-05-10T15:34:05+02:00</time>
      </trkpt>
      <trkpt lat="45.64713" lon="6.89873">
        <ele>2215</ele>
        <time>2021-05-10T15:34:10+02:00</time>
      </trkpt>
      <trkpt lat="45.64786" lon="6.89629">
        <ele>2168</ele>
        <time>2021-05-10T15:34:15+02:00</time>
      </trkpt>
      <trkpt lat="45.64803" lon="6.89353">
        <ele>2192</ele>
        <time>2021-05-10T15:34:20+02:00</time>
      </trkpt>
      <trkpt lat="45.64874" lon="6.89126">
        <ele>2198</ele>
        <time>2021-05-10T15:34:25+02:00</time>
      </trkpt>
      <trkpt lat="45.64908" lon="6.8899">
        <ele>2201</ele>
        <time>2021-05-10T15:34:30+02:00</time>
      </trkpt>
      <trkpt lat="45.64966" lon="6.88903">
        <ele>2191</ele>
        <time>2021-05-10T15:34:35+02:00</time>
      </trkpt>
      <trkpt lat="45.65052" lon="6.88812">
        <ele>2203</ele>
        <time>2021-05-10T15:34:40+02:00</time>
      </trkpt>
      <trkpt lat="45.65174" lon="6.88774">
        <ele>2224</ele>
        <time>2021-05-10T15:34:45+02:00</time>
      </trkpt>
      <trkpt lat="45.65259" lon="6.88708">
        <ele>2214</ele>
        <time>2021-05-10T15:34:50+02:00</time>
      </trkpt>
      <trkpt lat="45.65301" lon="6.88642">
        <ele>2204</ele>
        <time>2021-05-10T15:34:55+02:00</time>
      </trkpt>
      <trkpt lat="45.65347" lon="6.88499">
        <ele>2215</ele>
        <time>2021-05-10T15:35:00+02:00</time>
      </trkpt>
      <trkpt lat="45.65376" lon="6.88192">
        <ele>2229</ele>
        <time>2021-05-10T15:35:05+02:00</time>
      </trkpt>
      <trkpt lat="45.6541" lon="6.88059">
        <ele>2236</ele>
        <time>2021-05-10T15:35:10+02:00</time>
      </trkpt>
      <trkpt lat="45.65486" lon="6.87913">
        <ele>2271</ele>
        <time>2021-05-10T15:35:15+02:00</time>
      </trkpt>
      <trkpt lat="45.65517" lon="6.8771">
        <ele>2297</ele>
        <time>2021-05-10T15:35:20+02:00</time>
      </trkpt>
      <trkpt lat="45.65588" lon="6.87609">
        <ele>2325</ele>
        <time>2021-05-10T15:35:25+02:00</time>
      </trkpt>
      <trkpt lat="45.65635" lon="6.87696">
        <ele>2344</ele>
        <time>2021-05-10T15:35:30+02:00</time>
      </trkpt>
      <trkpt lat="45.65661" lon="6.87623">
        <ele>2360</ele>
        <time>2021-05-10T15:35:35+02:00</time>
      </trkpt>
      <trkpt lat="45.65734" lon="6.87742">
        <ele>2381</ele>
        <time>2021-05-10T15:35:40+02:00</time>
      </trkpt>
      <trkpt lat="45.65742" lon="6.87637">
        <ele>2383</ele>
        <time>2021-05-10T15:35:45+02:00</time>
      </trkpt>
      <trkpt lat="45.65786" lon="6.8778">
        <ele>2365</ele>
        <time>2021-05-10T15:35:50+02:00</time>
      </trkpt>
      <trkpt lat="45.65803" lon="6.87696">
        <ele>2342</ele>
        <time>2021-05-10T15:35:55+02:00</time>
      </trkpt>
      <trkpt lat="45.65849" lon="6.87801">
        <ele>2297</ele>
        <time>2021-05-10T15:36:00+02:00</time>
      </trkpt>
      <trkpt lat="45.65881" lon="6.87909">
        <ele>2292</ele>
        <time>2021-05-10T15:36:05+02:00</time>
      </trkpt>
      <trkpt lat="45.65959" lon="6.87839">
        <ele>2249</ele>
        <time>2021-05-10T15:36:10+02:00</time>
      </trkpt>
      <trkpt lat="45.66008" lon="6.87871">
        <ele>2225</ele>
        <time>2021-05-10T15:36:15+02:00</time>
      </trkpt>
      <trkpt lat="45.66068" lon="6.87846">
        <ele>2213</ele>
        <time>2021-05-10T15:36:20+02:00</time>
      </trkpt>
      <trkpt lat="45.66156" lon="6.8794">
        <ele>2223</ele>
        <time>2021-05-10T15:36:25+02:00</time>
      </trkpt>
      <trkpt lat="45.66198" lon="6.87979">
        <ele>2222</ele>
        <time>2021-05-10T15:36:30+02:00</time>
      </trkpt>
      <trkpt lat="45.66237" lon="6.8792">
        <ele>2220</ele>
        <time>2021-05-10T15:36:35+02:00</time>
      </trkpt>
      <trkpt lat="45.66354" lon="6.87864">
        <ele>2208</ele>
        <time>2021-05-10T15:36:40+02:00</time>
      </trkpt>
      <trkpt lat="45.66456" lon="6.8779">
        <ele>2196</ele>
        <time>2021-05-10T15:36:45+02:00</time>
      </trkpt>
      <trkpt lat="45.66512" lon="6.87665">
        <ele>2200</ele>
        <time>2021-05-10T15:36:50+02:00</time>
      </trkpt>
      <trkpt lat="45.66605" lon="6.8762">
        <ele>2207</ele>
        <time>2021-05-10T15:36:55+02:00</time>
      </trkpt>
      <trkpt lat="45.6671" lon="6.87609">
        <ele>2210</ele>
        <time>2021-05-10T15:37:00+02:00</time>
      </trkpt>
      <trkpt lat="45.66812" lon="6.87609">
        <ele>2212</ele>
        <time>2021-05-10T15:37:05+02:00</time>
      </trkpt>
      <trkpt lat="45.66934" lon="6.87682">
        <ele>2209</ele>
        <time>2021-05-10T15:37:10+02:00</time>
      </trkpt>
      <trkpt lat="45.67061" lon="6.87693">
        <ele>2168</ele>
        <time>2021-05-10T15:37:15+02:00</time>
      </trkpt>
      <trkpt lat="45.67151" lon="6.87724">
        <ele>2153</ele>
        <time>2021-05-10T15:37:20+02:00</time>
      </trkpt>
      <trkpt lat="45.67219" lon="6.87696">
        <ele>2152</ele>
        <time>2021-05-10T15:37:25+02:00</time>
      </trkpt>
      <trkpt lat="45.67146" lon="6.87546">
        <ele>2150</ele>
        <time>2021-05-10T15:37:30+02:00</time>
      </trkpt>
    </trkseg>
  </trk>
  <trk>
    <name><![CDATA[Jour 4]]></name>
    <desc><![CDATA[Petit Saint Bernard - Refuge Elisabetta (ita)]]></desc>
    <extensions>
      <line xmlns="http://www.topografix.com/GPX/gpx_style/0/2">
        <color>ff0000</color>
        <width>6</width>
      </line>
    </extensions>
    <trkseg>
      <trkpt lat="45.67161" lon="6.87557">
        <ele>2150</ele>
        <time>2021-05-10T15:37:35+02:00</time>
      </trkpt>
      <trkpt lat="45.67217" lon="6.87515">
        <ele>2153</ele>
        <time>2021-05-10T15:37:40+02:00</time>
      </trkpt>
      <trkpt lat="45.67278" lon="6.87466">
        <ele>2150</ele>
        <time>2021-05-10T15:37:45+02:00</time>
      </trkpt>
      <trkpt lat="45.6738" lon="6.8747">
        <ele>2151</ele>
        <time>2021-05-10T15:37:50+02:00</time>
      </trkpt>
      <trkpt lat="45.67541" lon="6.87557">
        <ele>2157</ele>
        <time>2021-05-10T15:37:55+02:00</time>
      </trkpt>
      <trkpt lat="45.67665" lon="6.87592">
        <ele>2159</ele>
        <time>2021-05-10T15:38:00+02:00</time>
      </trkpt>
      <trkpt lat="45.67731" lon="6.87682">
        <ele>2158</ele>
        <time>2021-05-10T15:38:05+02:00</time>
      </trkpt>
      <trkpt lat="45.67801" lon="6.87804">
        <ele>2166</ele>
        <time>2021-05-10T15:38:10+02:00</time>
      </trkpt>
      <trkpt lat="45.67853" lon="6.8792">
        <ele>2170</ele>
        <time>2021-05-10T15:38:15+02:00</time>
      </trkpt>
      <trkpt lat="45.67911" lon="6.8801">
        <ele>2175</ele>
        <time>2021-05-10T15:38:20+02:00</time>
      </trkpt>
      <trkpt lat="45.67987" lon="6.88066">
        <ele>2179</ele>
        <time>2021-05-10T15:38:25+02:00</time>
      </trkpt>
      <trkpt lat="45.68121" lon="6.88052">
        <ele>2172</ele>
        <time>2021-05-10T15:38:30+02:00</time>
      </trkpt>
      <trkpt lat="45.68252" lon="6.88035">
        <ele>2150</ele>
        <time>2021-05-10T15:38:35+02:00</time>
      </trkpt>
      <trkpt lat="45.68362" lon="6.88028">
        <ele>2131</ele>
        <time>2021-05-10T15:38:40+02:00</time>
      </trkpt>
      <trkpt lat="45.68435" lon="6.87968">
        <ele>2130</ele>
        <time>2021-05-10T15:38:45+02:00</time>
      </trkpt>
      <trkpt lat="45.68511" lon="6.87885">
        <ele>2112</ele>
        <time>2021-05-10T15:38:50+02:00</time>
      </trkpt>
      <trkpt lat="45.68603" lon="6.87843">
        <ele>2096</ele>
        <time>2021-05-10T15:38:55+02:00</time>
      </trkpt>
      <trkpt lat="45.68718" lon="6.87874">
        <ele>2101</ele>
        <time>2021-05-10T15:39:00+02:00</time>
      </trkpt>
      <trkpt lat="45.68808" lon="6.8794">
        <ele>2097</ele>
        <time>2021-05-10T15:39:05+02:00</time>
      </trkpt>
      <trkpt lat="45.6892" lon="6.88017">
        <ele>2096</ele>
        <time>2021-05-10T15:39:10+02:00</time>
      </trkpt>
      <trkpt lat="45.69035" lon="6.88077">
        <ele>2098</ele>
        <time>2021-05-10T15:39:15+02:00</time>
      </trkpt>
      <trkpt lat="45.69117" lon="6.88136">
        <ele>2098</ele>
        <time>2021-05-10T15:39:20+02:00</time>
      </trkpt>
      <trkpt lat="45.69203" lon="6.87995">
        <ele>2130</ele>
        <time>2021-05-10T15:39:25+02:00</time>
      </trkpt>
      <trkpt lat="45.69244" lon="6.87744">
        <ele>2204</ele>
        <time>2021-05-10T15:39:30+02:00</time>
      </trkpt>
      <trkpt lat="45.69249" lon="6.87427">
        <ele>2275</ele>
        <time>2021-05-10T15:39:35+02:00</time>
      </trkpt>
      <trkpt lat="45.69268" lon="6.87252">
        <ele>2280</ele>
        <time>2021-05-10T15:39:40+02:00</time>
      </trkpt>
      <trkpt lat="45.69354" lon="6.87012">
        <ele>2268</ele>
        <time>2021-05-10T15:39:45+02:00</time>
      </trkpt>
      <trkpt lat="45.69458" lon="6.86893">
        <ele>2241</ele>
        <time>2021-05-10T15:39:50+02:00</time>
      </trkpt>
      <trkpt lat="45.69507" lon="6.8666">
        <ele>2293</ele>
        <time>2021-05-10T15:39:55+02:00</time>
      </trkpt>
      <trkpt lat="45.69558" lon="6.86412">
        <ele>2343</ele>
        <time>2021-05-10T15:40:00+02:00</time>
      </trkpt>
      <trkpt lat="45.69636" lon="6.86293">
        <ele>2378</ele>
        <time>2021-05-10T15:40:05+02:00</time>
      </trkpt>
      <trkpt lat="45.69678" lon="6.86035">
        <ele>2366</ele>
        <time>2021-05-10T15:40:10+02:00</time>
      </trkpt>
      <trkpt lat="45.69768" lon="6.86084">
        <ele>2351</ele>
        <time>2021-05-10T15:40:15+02:00</time>
      </trkpt>
      <trkpt lat="45.69841" lon="6.85983">
        <ele>2417</ele>
        <time>2021-05-10T15:40:20+02:00</time>
      </trkpt>
      <trkpt lat="45.69875" lon="6.85857">
        <ele>2440</ele>
        <time>2021-05-10T15:40:25+02:00</time>
      </trkpt>
      <trkpt lat="45.69839" lon="6.85739">
        <ele>2454</ele>
        <time>2021-05-10T15:40:30+02:00</time>
      </trkpt>
      <trkpt lat="45.69934" lon="6.85732">
        <ele>2480</ele>
        <time>2021-05-10T15:40:35+02:00</time>
      </trkpt>
      <trkpt lat="45.69924" lon="6.85641">
        <ele>2514</ele>
        <time>2021-05-10T15:40:40+02:00</time>
      </trkpt>
      <trkpt lat="45.70043" lon="6.85658">
        <ele>2555</ele>
        <time>2021-05-10T15:40:45+02:00</time>
      </trkpt>
      <trkpt lat="45.70177" lon="6.85578">
        <ele>2554</ele>
        <time>2021-05-10T15:40:50+02:00</time>
      </trkpt>
      <trkpt lat="45.70311" lon="6.85484">
        <ele>2552</ele>
        <time>2021-05-10T15:40:55+02:00</time>
      </trkpt>
      <trkpt lat="45.7044" lon="6.85463">
        <ele>2548</ele>
        <time>2021-05-10T15:41:00+02:00</time>
      </trkpt>
      <trkpt lat="45.70499" lon="6.85243">
        <ele>2540</ele>
        <time>2021-05-10T15:41:05+02:00</time>
      </trkpt>
      <trkpt lat="45.70647" lon="6.85236">
        <ele>2536</ele>
        <time>2021-05-10T15:41:10+02:00</time>
      </trkpt>
      <trkpt lat="45.70786" lon="6.85306">
        <ele>2501</ele>
        <time>2021-05-10T15:41:15+02:00</time>
      </trkpt>
      <trkpt lat="45.70881" lon="6.85439">
        <ele>2497</ele>
        <time>2021-05-10T15:41:20+02:00</time>
      </trkpt>
      <trkpt lat="45.71052" lon="6.85449">
        <ele>2501</ele>
        <time>2021-05-10T15:41:25+02:00</time>
      </trkpt>
      <trkpt lat="45.7112" lon="6.85324">
        <ele>2484</ele>
        <time>2021-05-10T15:41:30+02:00</time>
      </trkpt>
      <trkpt lat="45.71164" lon="6.85149">
        <ele>2462</ele>
        <time>2021-05-10T15:41:35+02:00</time>
      </trkpt>
      <trkpt lat="45.71322" lon="6.84909">
        <ele>2445</ele>
        <time>2021-05-10T15:41:40+02:00</time>
      </trkpt>
      <trkpt lat="45.71451" lon="6.84741">
        <ele>2449</ele>
        <time>2021-05-10T15:41:45+02:00</time>
      </trkpt>
      <trkpt lat="45.71624" lon="6.84616">
        <ele>2473</ele>
        <time>2021-05-10T15:41:50+02:00</time>
      </trkpt>
      <trkpt lat="45.71775" lon="6.84563">
        <ele>2500</ele>
        <time>2021-05-10T15:41:55+02:00</time>
      </trkpt>
      <trkpt lat="45.71926" lon="6.84574">
        <ele>2518</ele>
        <time>2021-05-10T15:42:00+02:00</time>
      </trkpt>
      <trkpt lat="45.72111" lon="6.84539">
        <ele>2500</ele>
        <time>2021-05-10T15:42:05+02:00</time>
      </trkpt>
      <trkpt lat="45.72313" lon="6.84542">
        <ele>2527</ele>
        <time>2021-05-10T15:42:10+02:00</time>
      </trkpt>
      <trkpt lat="45.72513" lon="6.84546">
        <ele>2559</ele>
        <time>2021-05-10T15:42:15+02:00</time>
      </trkpt>
      <trkpt lat="45.72659" lon="6.84392">
        <ele>2590</ele>
        <time>2021-05-10T15:42:20+02:00</time>
      </trkpt>
      <trkpt lat="45.72827" lon="6.84246">
        <ele>2625</ele>
        <time>2021-05-10T15:42:25+02:00</time>
      </trkpt>
      <trkpt lat="45.73048" lon="6.84113">
        <ele>2652</ele>
        <time>2021-05-10T15:42:30+02:00</time>
      </trkpt>
      <trkpt lat="45.73197" lon="6.84026">
        <ele>2675</ele>
        <time>2021-05-10T15:42:35+02:00</time>
      </trkpt>
      <trkpt lat="45.73411" lon="6.84012">
        <ele>2730</ele>
        <time>2021-05-10T15:42:40+02:00</time>
      </trkpt>
      <trkpt lat="45.73555" lon="6.84068">
        <ele>2650</ele>
        <time>2021-05-10T15:42:45+02:00</time>
      </trkpt>
      <trkpt lat="45.73742" lon="6.83984">
        <ele>2635</ele>
        <time>2021-05-10T15:42:50+02:00</time>
      </trkpt>
      <trkpt lat="45.73835" lon="6.83726">
        <ele>2656</ele>
        <time>2021-05-10T15:42:55+02:00</time>
      </trkpt>
      <trkpt lat="45.7393" lon="6.83423">
        <ele>2636</ele>
        <time>2021-05-10T15:43:00+02:00</time>
      </trkpt>
      <trkpt lat="45.74052" lon="6.83391">
        <ele>2636</ele>
        <time>2021-05-10T15:43:05+02:00</time>
      </trkpt>
      <trkpt lat="45.7421" lon="6.83353">
        <ele>2636</ele>
        <time>2021-05-10T15:43:10+02:00</time>
      </trkpt>
      <trkpt lat="45.74361" lon="6.8343">
        <ele>2627</ele>
        <time>2021-05-10T15:43:15+02:00</time>
      </trkpt>
      <trkpt lat="45.74558" lon="6.83444">
        <ele>2669</ele>
        <time>2021-05-10T15:43:20+02:00</time>
      </trkpt>
      <trkpt lat="45.74748" lon="6.83485">
        <ele>2606</ele>
        <time>2021-05-10T15:43:25+02:00</time>
      </trkpt>
      <trkpt lat="45.74947" lon="6.83538">
        <ele>2591</ele>
        <time>2021-05-10T15:43:30+02:00</time>
      </trkpt>
      <trkpt lat="45.75045" lon="6.83503">
        <ele>2527</ele>
        <time>2021-05-10T15:43:35+02:00</time>
      </trkpt>
      <trkpt lat="45.7529" lon="6.8359">
        <ele>2489</ele>
        <time>2021-05-10T15:43:40+02:00</time>
      </trkpt>
      <trkpt lat="45.75125" lon="6.83206">
        <ele>2440</ele>
        <time>2021-05-10T15:43:45+02:00</time>
      </trkpt>
      <trkpt lat="45.75356" lon="6.83318">
        <ele>2376</ele>
        <time>2021-05-10T15:43:50+02:00</time>
      </trkpt>
      <trkpt lat="45.75337" lon="6.83269">
        <ele>2366</ele>
        <time>2021-05-10T15:43:55+02:00</time>
      </trkpt>
      <trkpt lat="45.75524" lon="6.83333">
        <ele>2310</ele>
        <time>2021-05-10T15:44:00+02:00</time>
      </trkpt>
      <trkpt lat="45.7548" lon="6.83274">
        <ele>2309</ele>
        <time>2021-05-10T15:44:05+02:00</time>
      </trkpt>
      <trkpt lat="45.75546" lon="6.83271">
        <ele>2279</ele>
        <time>2021-05-10T15:44:10+02:00</time>
      </trkpt>
      <trkpt lat="45.75512" lon="6.83176">
        <ele>2265</ele>
        <time>2021-05-10T15:44:15+02:00</time>
      </trkpt>
      <trkpt lat="45.75577" lon="6.83194">
        <ele>2241</ele>
        <time>2021-05-10T15:44:20+02:00</time>
      </trkpt>
      <trkpt lat="45.75543" lon="6.83079">
        <ele>2223</ele>
        <time>2021-05-10T15:44:25+02:00</time>
      </trkpt>
      <trkpt lat="45.75784" lon="6.83264">
        <ele>2170</ele>
        <time>2021-05-10T15:44:30+02:00</time>
      </trkpt>
      <trkpt lat="45.75801" lon="6.83103">
        <ele>2174</ele>
        <time>2021-05-10T15:44:35+02:00</time>
      </trkpt>
      <trkpt lat="45.76064" lon="6.83337">
        <ele>2161</ele>
        <time>2021-05-10T15:44:40+02:00</time>
      </trkpt>
      <trkpt lat="45.76208" lon="6.83497">
        <ele>2160</ele>
        <time>2021-05-10T15:44:45+02:00</time>
      </trkpt>
      <trkpt lat="45.76371" lon="6.83661">
        <ele>2153</ele>
        <time>2021-05-10T15:44:50+02:00</time>
      </trkpt>
      <trkpt lat="45.76539" lon="6.83864">
        <ele>2149</ele>
        <time>2021-05-10T15:44:55+02:00</time>
      </trkpt>
      <trkpt lat="45.76655" lon="6.83825">
        <ele>2160</ele>
        <time>2021-05-10T15:45:00+02:00</time>
      </trkpt>
    </trkseg>
  </trk>
  <trk>
    <name><![CDATA[Jour 5]]></name>
    <desc><![CDATA[Refuge Elisabetta - Ville des Glaciers]]></desc>
    <extensions>
      <line xmlns="http://www.topografix.com/GPX/gpx_style/0/2">
        <color>ff0004</color>
        <width>6</width>
      </line>
    </extensions>
    <trkseg>
      <trkpt lat="45.76708" lon="6.83758">
        <ele>2187</ele>
        <time>2021-05-10T15:45:31+02:00</time>
      </trkpt>
      <trkpt lat="45.76691" lon="6.8359">
        <ele>2218</ele>
        <time>2021-05-10T15:45:36+02:00</time>
      </trkpt>
      <trkpt lat="45.76611" lon="6.83322">
        <ele>2300</ele>
        <time>2021-05-10T15:45:41+02:00</time>
      </trkpt>
      <trkpt lat="45.76591" lon="6.83147">
        <ele>2328</ele>
        <time>2021-05-10T15:45:46+02:00</time>
      </trkpt>
      <trkpt lat="45.76496" lon="6.82795">
        <ele>2408</ele>
        <time>2021-05-10T15:45:51+02:00</time>
      </trkpt>
      <trkpt lat="45.76414" lon="6.82561">
        <ele>2430</ele>
        <time>2021-05-10T15:45:56+02:00</time>
      </trkpt>
      <trkpt lat="45.76277" lon="6.82397">
        <ele>2508</ele>
        <time>2021-05-10T15:46:01+02:00</time>
      </trkpt>
      <trkpt lat="45.76141" lon="6.82192">
        <ele>2606</ele>
        <time>2021-05-10T15:46:06+02:00</time>
      </trkpt>
      <trkpt lat="45.76102" lon="6.82139">
        <ele>2619</ele>
        <time>2021-05-10T15:46:11+02:00</time>
      </trkpt>
      <trkpt lat="45.7601" lon="6.82031">
        <ele>2544</ele>
        <time>2021-05-10T15:46:16+02:00</time>
      </trkpt>
      <trkpt lat="45.75951" lon="6.8193">
        <ele>2486</ele>
        <time>2021-05-10T15:46:21+02:00</time>
      </trkpt>
      <trkpt lat="45.75852" lon="6.81818">
        <ele>2459</ele>
        <time>2021-05-10T15:46:26+02:00</time>
      </trkpt>
      <trkpt lat="45.75774" lon="6.81623">
        <ele>2429</ele>
        <time>2021-05-10T15:46:31+02:00</time>
      </trkpt>
      <trkpt lat="45.75691" lon="6.81522">
        <ele>2397</ele>
        <time>2021-05-10T15:46:36+02:00</time>
      </trkpt>
      <trkpt lat="45.75589" lon="6.81271">
        <ele>2404</ele>
        <time>2021-05-10T15:46:41+02:00</time>
      </trkpt>
      <trkpt lat="45.75477" lon="6.81163">
        <ele>2434</ele>
        <time>2021-05-10T15:46:46+02:00</time>
      </trkpt>
      <trkpt lat="45.75392" lon="6.80988">
        <ele>2478</ele>
        <time>2021-05-10T15:46:51+02:00</time>
      </trkpt>
      <trkpt lat="45.75353" lon="6.80545">
        <ele>2549</ele>
        <time>2021-05-10T15:46:56+02:00</time>
      </trkpt>
      <trkpt lat="45.75377" lon="6.80374">
        <ele>2555</ele>
        <time>2021-05-10T15:47:01+02:00</time>
      </trkpt>
      <trkpt lat="45.75379" lon="6.80207">
        <ele>2548</ele>
        <time>2021-05-10T15:47:06+02:00</time>
      </trkpt>
      <trkpt lat="45.75399" lon="6.79991">
        <ele>2517</ele>
        <time>2021-05-10T15:47:11+02:00</time>
      </trkpt>
      <trkpt lat="45.75523" lon="6.80004">
        <ele>2491</ele>
        <time>2021-05-10T15:47:16+02:00</time>
      </trkpt>
      <trkpt lat="45.75618" lon="6.79889">
        <ele>2501</ele>
        <time>2021-05-10T15:47:21+02:00</time>
      </trkpt>
      <trkpt lat="45.75674" lon="6.79677">
        <ele>2513</ele>
        <time>2021-05-10T15:47:26+02:00</time>
      </trkpt>
      <trkpt lat="45.75801" lon="6.79584">
        <ele>2592</ele>
        <time>2021-05-10T15:47:31+02:00</time>
      </trkpt>
      <trkpt lat="45.7577" lon="6.79448">
        <ele>2594</ele>
        <time>2021-05-10T15:47:36+02:00</time>
      </trkpt>
      <trkpt lat="45.75721" lon="6.79288">
        <ele>2552</ele>
        <time>2021-05-10T15:47:41+02:00</time>
      </trkpt>
      <trkpt lat="45.75736" lon="6.7912">
        <ele>2498</ele>
        <time>2021-05-10T15:47:46+02:00</time>
      </trkpt>
      <trkpt lat="45.75828" lon="6.79037">
        <ele>2515</ele>
        <time>2021-05-10T15:47:51+02:00</time>
      </trkpt>
      <trkpt lat="45.75901" lon="6.78935">
        <ele>2522</ele>
        <time>2021-05-10T15:47:56+02:00</time>
      </trkpt>
      <trkpt lat="45.75979" lon="6.78824">
        <ele>2537</ele>
        <time>2021-05-10T15:48:01+02:00</time>
      </trkpt>
      <trkpt lat="45.76093" lon="6.78712">
        <ele>2585</ele>
        <time>2021-05-10T15:48:06+02:00</time>
      </trkpt>
      <trkpt lat="45.76035" lon="6.78552">
        <ele>2522</ele>
        <time>2021-05-10T15:48:11+02:00</time>
      </trkpt>
      <trkpt lat="45.7603" lon="6.78315">
        <ele>2468</ele>
        <time>2021-05-10T15:48:16+02:00</time>
      </trkpt>
      <trkpt lat="45.76084" lon="6.78172">
        <ele>2511</ele>
        <time>2021-05-10T15:48:21+02:00</time>
      </trkpt>
      <trkpt lat="45.76164" lon="6.78088">
        <ele>2541</ele>
        <time>2021-05-10T15:48:26+02:00</time>
      </trkpt>
      <trkpt lat="45.76269" lon="6.78147">
        <ele>2597</ele>
        <time>2021-05-10T15:48:31+02:00</time>
      </trkpt>
      <trkpt lat="45.76337" lon="6.78088">
        <ele>2658</ele>
        <time>2021-05-10T15:48:36+02:00</time>
      </trkpt>
      <trkpt lat="45.76405" lon="6.77924">
        <ele>2695</ele>
        <time>2021-05-10T15:48:41+02:00</time>
      </trkpt>
      <trkpt lat="45.76444" lon="6.77722">
        <ele>2720</ele>
        <time>2021-05-10T15:48:46+02:00</time>
      </trkpt>
      <trkpt lat="45.76505" lon="6.7753">
        <ele>2737</ele>
        <time>2021-05-10T15:48:51+02:00</time>
      </trkpt>
      <trkpt lat="45.76544" lon="6.77443">
        <ele>2743</ele>
        <time>2021-05-10T15:48:56+02:00</time>
      </trkpt>
      <trkpt lat="45.76473" lon="6.77397">
        <ele>2720</ele>
        <time>2021-05-10T15:49:01+02:00</time>
      </trkpt>
      <trkpt lat="45.76356" lon="6.77345">
        <ele>2672</ele>
        <time>2021-05-10T15:49:06+02:00</time>
      </trkpt>
      <trkpt lat="45.76239" lon="6.77303">
        <ele>2619</ele>
        <time>2021-05-10T15:49:11+02:00</time>
      </trkpt>
      <trkpt lat="45.76115" lon="6.77279">
        <ele>2573</ele>
        <time>2021-05-10T15:49:16+02:00</time>
      </trkpt>
      <trkpt lat="45.75977" lon="6.7724">
        <ele>2514</ele>
        <time>2021-05-10T15:49:21+02:00</time>
      </trkpt>
      <trkpt lat="45.75894" lon="6.77101">
        <ele>2448</ele>
        <time>2021-05-10T15:49:26+02:00</time>
      </trkpt>
      <trkpt lat="45.75792" lon="6.7709">
        <ele>2416</ele>
        <time>2021-05-10T15:49:31+02:00</time>
      </trkpt>
      <trkpt lat="45.75675" lon="6.77101">
        <ele>2361</ele>
        <time>2021-05-10T15:49:36+02:00</time>
      </trkpt>
      <trkpt lat="45.75582" lon="6.77216">
        <ele>2307</ele>
        <time>2021-05-10T15:49:41+02:00</time>
      </trkpt>
      <trkpt lat="45.75465" lon="6.7732">
        <ele>2256</ele>
        <time>2021-05-10T15:49:46+02:00</time>
      </trkpt>
      <trkpt lat="45.75465" lon="6.77415">
        <ele>2236</ele>
        <time>2021-05-10T15:49:51+02:00</time>
      </trkpt>
      <trkpt lat="45.75371" lon="6.77477">
        <ele>2184</ele>
        <time>2021-05-10T15:49:56+02:00</time>
      </trkpt>
      <trkpt lat="45.75273" lon="6.77606">
        <ele>2121</ele>
        <time>2021-05-10T15:50:01+02:00</time>
      </trkpt>
      <trkpt lat="45.7521" lon="6.77763">
        <ele>2064</ele>
        <time>2021-05-10T15:50:06+02:00</time>
      </trkpt>
      <trkpt lat="45.75137" lon="6.77666">
        <ele>2055</ele>
        <time>2021-05-10T15:50:11+02:00</time>
      </trkpt>
      <trkpt lat="45.75052" lon="6.7776">
        <ele>2036</ele>
        <time>2021-05-10T15:50:16+02:00</time>
      </trkpt>
      <trkpt lat="45.7495" lon="6.77819">
        <ele>2014</ele>
        <time>2021-05-10T15:50:21+02:00</time>
      </trkpt>
      <trkpt lat="45.7485" lon="6.77868">
        <ele>1994</ele>
        <time>2021-05-10T15:50:26+02:00</time>
      </trkpt>
      <trkpt lat="45.7473" lon="6.77913">
        <ele>1979</ele>
        <time>2021-05-10T15:50:31+02:00</time>
      </trkpt>
      <trkpt lat="45.74611" lon="6.77997">
        <ele>1967</ele>
        <time>2021-05-10T15:50:36+02:00</time>
      </trkpt>
      <trkpt lat="45.74475" lon="6.78074">
        <ele>1965</ele>
        <time>2021-05-10T15:50:41+02:00</time>
      </trkpt>
      <trkpt lat="45.74375" lon="6.78084">
        <ele>1961</ele>
        <time>2021-05-10T15:50:46+02:00</time>
      </trkpt>
      <trkpt lat="45.74275" lon="6.78035">
        <ele>1959</ele>
        <time>2021-05-10T15:50:51+02:00</time>
      </trkpt>
      <trkpt lat="45.74185" lon="6.78004">
        <ele>1949</ele>
        <time>2021-05-10T15:50:56+02:00</time>
      </trkpt>
      <trkpt lat="45.74146" lon="6.77805">
        <ele>1946</ele>
        <time>2021-05-10T15:51:01+02:00</time>
      </trkpt>
      <trkpt lat="45.74122" lon="6.77948">
        <ele>1929</ele>
        <time>2021-05-10T15:51:06+02:00</time>
      </trkpt>
      <trkpt lat="45.74088" lon="6.77851">
        <ele>1918</ele>
        <time>2021-05-10T15:51:11+02:00</time>
      </trkpt>
      <trkpt lat="45.7399" lon="6.77819">
        <ele>1909</ele>
        <time>2021-05-10T15:51:16+02:00</time>
      </trkpt>
      <trkpt lat="45.73896" lon="6.77777">
        <ele>1913</ele>
        <time>2021-05-10T15:51:21+02:00</time>
      </trkpt>
      <trkpt lat="45.73837" lon="6.77743">
        <ele>1913</ele>
        <time>2021-05-10T15:51:26+02:00</time>
      </trkpt>
      <trkpt lat="45.73749" lon="6.77683">
        <ele>1903</ele>
        <time>2021-05-10T15:51:31+02:00</time>
      </trkpt>
      <trkpt lat="45.73664" lon="6.77627">
        <ele>1891</ele>
        <time>2021-05-10T15:51:36+02:00</time>
      </trkpt>
      <trkpt lat="45.73557" lon="6.77516">
        <ele>1875</ele>
        <time>2021-05-10T15:51:41+02:00</time>
      </trkpt>
      <trkpt lat="45.73504" lon="6.77324">
        <ele>1867</ele>
        <time>2021-05-10T15:51:46+02:00</time>
      </trkpt>
      <trkpt lat="45.73487" lon="6.77439">
        <ele>1854</ele>
        <time>2021-05-10T15:51:51+02:00</time>
      </trkpt>
      <trkpt lat="45.73423" lon="6.7732">
        <ele>1842</ele>
        <time>2021-05-10T15:51:56+02:00</time>
      </trkpt>
      <trkpt lat="45.73333" lon="6.7723">
        <ele>1834</ele>
        <time>2021-05-10T15:52:01+02:00</time>
      </trkpt>
      <trkpt lat="45.73207" lon="6.77083">
        <ele>1825</ele>
        <time>2021-05-10T15:52:06+02:00</time>
      </trkpt>
      <trkpt lat="45.73124" lon="6.76916">
        <ele>1815</ele>
        <time>2021-05-10T15:52:11+02:00</time>
      </trkpt>
      <trkpt lat="45.73024" lon="6.76905">
        <ele>1805</ele>
        <time>2021-05-10T15:52:16+02:00</time>
      </trkpt>
      <trkpt lat="45.72754" lon="6.76741">
        <ele>1789</ele>
        <time>2021-05-10T15:52:21+02:00</time>
      </trkpt>
    </trkseg>
  </trk>
</gpx>